createdAt,value
2022-11-16T00:02:36.526Z,1.60
2022-11-16T00:05:27.978Z,1.48
2022-11-16T00:08:14.296Z,1.30
2022-11-16T00:11:13.836Z,2.60
2022-11-16T00:14:00.095Z,2.97
2022-11-16T00:16:46.182Z,1.88
2022-11-16T00:19:32.274Z,2.75
2022-11-16T00:22:21.054Z,1.60
2022-11-16T00:25:07.954Z,1.70
2022-11-16T00:27:54.003Z,2.10
2022-11-16T00:30:42.570Z,1.85
2022-11-16T00:33:29.167Z,1.48
2022-11-16T00:36:16.443Z,2.35
2022-11-16T00:39:03.359Z,2.20
2022-11-16T00:41:49.992Z,1.88
2022-11-16T00:44:36.761Z,2.10
2022-11-16T00:47:22.708Z,1.48
2022-11-16T00:50:08.811Z,1.55
2022-11-16T00:52:56.574Z,1.17
2022-11-16T00:55:45.015Z,1.23
2022-11-16T00:58:32.612Z,1.38
2022-11-16T01:01:24.400Z,0.85
2022-11-16T01:04:10.469Z,1.13
2022-11-16T01:06:56.400Z,0.95
2022-11-16T01:09:43.763Z,0.85
2022-11-16T01:12:29.581Z,1.10
2022-11-16T01:15:17.371Z,0.82
2022-11-16T01:18:05.114Z,1.00
2022-11-16T01:20:53.571Z,0.60
2022-11-16T01:23:39.502Z,0.82
2022-11-16T01:26:26.119Z,0.85
2022-11-16T01:29:12.428Z,0.70
2022-11-16T01:32:02.962Z,0.50
2022-11-16T01:34:50.769Z,0.90
2022-11-16T01:37:45.355Z,0.60
2022-11-16T01:40:31.597Z,0.85
2022-11-16T01:43:19.978Z,1.30
2022-11-16T01:46:06.431Z,1.02
2022-11-16T01:49:14.398Z,0.95
2022-11-16T01:52:10.842Z,0.90
2022-11-16T01:54:59.018Z,0.80
2022-11-16T01:57:49.558Z,1.20
2022-11-16T02:00:35.663Z,1.10
2022-11-16T02:03:40.820Z,1.50
2022-11-16T02:06:44.602Z,1.20
2022-11-16T02:10:05.249Z,1.15
2022-11-16T02:12:57.282Z,1.23
2022-11-16T02:15:59.883Z,1.70
2022-11-16T02:19:11.429Z,1.17
2022-11-16T02:22:10.357Z,1.45
2022-11-16T02:25:12.308Z,1.45
2022-11-16T02:28:29.796Z,1.40
2022-11-16T02:31:28.606Z,1.50
2022-11-16T02:34:18.318Z,1.20
2022-11-16T02:37:07.114Z,1.23
2022-11-16T02:40:03.549Z,1.23
2022-11-16T02:43:12.074Z,1.60
2022-11-16T02:46:03.128Z,1.85
2022-11-16T02:48:57.281Z,1.45
2022-11-16T02:51:44.681Z,1.65
2022-11-16T02:54:31.366Z,1.20
2022-11-16T02:57:42.443Z,1.63
2022-11-16T03:00:34.020Z,1.40
2022-11-16T03:03:29.603Z,1.23
2022-11-16T03:06:23.484Z,1.50
2022-11-16T03:09:18.253Z,2.05
2022-11-16T03:12:09.011Z,1.60
2022-11-16T03:15:02.621Z,1.40
2022-11-16T03:17:53.907Z,1.10
2022-11-16T03:20:44.385Z,1.42
2022-11-16T03:23:30.903Z,1.42
2022-11-16T03:26:20.551Z,1.35
2022-11-16T03:29:21.470Z,1.25
2022-11-16T03:32:47.654Z,1.42
2022-11-16T03:35:55.289Z,1.10
2022-11-16T03:38:44.183Z,1.15
2022-11-16T03:41:35.379Z,1.75
2022-11-16T03:44:22.107Z,1.33
2022-11-16T03:47:08.608Z,1.00
2022-11-16T03:49:55.007Z,1.30
2022-11-16T03:52:43.191Z,1.27
2022-11-16T03:55:37.394Z,1.00
2022-11-16T03:58:23.256Z,1.48
2022-11-16T04:01:09.530Z,1.50
2022-11-16T04:03:56.207Z,1.50
2022-11-16T04:07:01.758Z,1.40
2022-11-16T04:10:07.138Z,0.98
2022-11-16T04:13:16.897Z,1.27
2022-11-16T04:16:22.284Z,1.08
2022-11-16T04:19:30.257Z,0.98
2022-11-16T04:22:44.677Z,1.25
2022-11-16T04:25:35.684Z,1.55
2022-11-16T04:28:27.433Z,1.05
2022-11-16T04:31:35.590Z,0.63
2022-11-16T04:34:44.761Z,0.90
2022-11-16T04:37:49.434Z,0.80
2022-11-16T04:40:40.529Z,0.75
2022-11-16T04:43:29.483Z,1.08
2022-11-16T04:46:34.362Z,1.10
2022-11-16T04:49:20.840Z,0.93
2022-11-16T04:52:07.408Z,1.00
2022-11-16T04:54:53.493Z,1.00
2022-11-16T04:57:40.166Z,0.70
2022-11-16T05:00:27.387Z,1.05
2022-11-16T05:03:14.284Z,2.15
2022-11-16T05:06:00.670Z,0.90
2022-11-16T05:08:47.732Z,1.05
2022-11-16T05:11:34.112Z,1.15
2022-11-16T05:14:21.257Z,0.85
2022-11-16T05:17:12.377Z,1.10
2022-11-16T05:20:16.918Z,1.25
2022-11-16T05:23:28.589Z,1.00
2022-11-16T05:26:18.042Z,0.93
2022-11-16T05:29:04.307Z,0.77
2022-11-16T05:31:50.521Z,0.95
2022-11-16T05:34:38.187Z,1.00
2022-11-16T05:37:27.146Z,1.00
2022-11-16T05:40:13.313Z,0.80
2022-11-16T05:43:06.474Z,0.90
2022-11-16T05:45:58.560Z,0.90
2022-11-16T05:48:45.052Z,0.82
2022-11-16T05:51:32.375Z,1.15
2022-11-16T05:54:21.807Z,0.85
2022-11-16T05:57:07.712Z,1.00
2022-11-16T05:59:54.328Z,1.05
2022-11-16T06:02:40.487Z,0.77
2022-11-16T06:05:27.831Z,1.25
2022-11-16T06:08:15.162Z,1.10
2022-11-16T06:11:07.885Z,1.48
2022-11-16T06:13:55.907Z,1.80
2022-11-16T06:16:42.534Z,1.48
2022-11-16T06:19:32.493Z,2.72
2022-11-16T06:22:19.156Z,1.75
2022-11-16T06:25:08.402Z,1.50
2022-11-16T06:28:02.903Z,1.73
2022-11-16T06:30:52.317Z,1.98
2022-11-16T06:33:38.316Z,1.40
2022-11-16T06:36:29.222Z,1.38
2022-11-16T06:39:16.783Z,1.85
2022-11-16T06:42:07.264Z,2.10
2022-11-16T06:44:53.795Z,1.65
2022-11-16T06:47:43.953Z,3.22
2022-11-16T06:50:34.042Z,2.40
2022-11-16T06:53:25.931Z,1.67
2022-11-16T06:56:16.241Z,1.60
2022-11-16T06:59:07.731Z,1.67
2022-11-16T07:01:54.273Z,1.35
2022-11-16T07:04:40.166Z,2.03
2022-11-16T07:07:26.475Z,1.60
2022-11-16T07:10:14.568Z,1.48
2022-11-16T07:13:03.393Z,1.70
2022-11-16T07:15:50.652Z,1.95
2022-11-16T07:18:39.310Z,1.80
2022-11-16T07:21:26.005Z,2.05
2022-11-16T07:24:14.462Z,1.52
2022-11-16T07:27:01.920Z,1.75
2022-11-16T07:29:53.446Z,1.80
2022-11-16T07:32:59.742Z,1.48
2022-11-16T07:36:15.850Z,1.80
2022-11-16T07:39:02.429Z,1.40
2022-11-16T07:41:53.095Z,1.70
2022-11-16T07:44:49.223Z,2.20
2022-11-16T07:47:37.595Z,2.00
2022-11-16T07:50:26.207Z,1.75
2022-11-16T07:53:12.502Z,1.42
2022-11-16T07:55:59.575Z,1.45
2022-11-16T07:58:48.210Z,1.50
2022-11-16T08:01:34.558Z,1.40
2022-11-16T08:04:21.406Z,1.70
2022-11-16T08:07:08.667Z,1.70
2022-11-16T08:10:02.522Z,1.60
2022-11-16T08:12:48.861Z,1.38
2022-11-16T08:15:36.708Z,1.35
2022-11-16T08:18:25.796Z,1.70
2022-11-16T08:21:14.571Z,2.25
2022-11-16T08:24:02.472Z,1.67
2022-11-16T08:26:50.616Z,1.40
2022-11-16T08:29:36.950Z,1.20
2022-11-16T08:32:25.511Z,1.13
2022-11-16T08:35:13.352Z,1.25
2022-11-16T08:37:59.864Z,1.50
2022-11-16T08:40:50.334Z,1.30
2022-11-16T08:43:39.501Z,1.42
2022-11-16T08:46:27.022Z,1.30
2022-11-16T08:49:22.103Z,1.55
2022-11-16T08:52:07.890Z,1.27
2022-11-16T08:54:54.850Z,1.02
2022-11-16T08:57:41.396Z,1.30
2022-11-16T09:00:30.357Z,1.13
2022-11-16T09:03:16.266Z,1.23
2022-11-16T09:06:02.573Z,1.38
2022-11-16T09:08:49.106Z,1.40
2022-11-16T09:11:35.293Z,1.15
2022-11-16T09:14:21.983Z,1.70
2022-11-16T09:17:07.686Z,1.45
2022-11-16T09:19:53.578Z,1.80
2022-11-16T09:22:40.258Z,1.48
2022-11-16T09:25:26.508Z,1.75
2022-11-16T09:28:12.569Z,1.65
2022-11-16T09:31:04.158Z,1.40
2022-11-16T09:33:51.061Z,1.80
2022-11-16T09:36:37.124Z,1.35
2022-11-16T09:39:31.655Z,1.63
2022-11-16T09:42:36.723Z,1.50
2022-11-16T09:45:45.931Z,1.52
2022-11-16T09:48:37.758Z,1.52
2022-11-16T09:51:27.185Z,1.40
2022-11-16T09:54:21.592Z,2.38
2022-11-16T09:57:12.804Z,1.10
2022-11-16T10:00:03.347Z,2.50
2022-11-16T10:03:13.480Z,1.55
2022-11-16T10:06:06.502Z,1.83
2022-11-16T10:08:56.547Z,1.60
2022-11-16T10:12:09.972Z,1.77
2022-11-16T10:14:57.541Z,1.85
2022-11-16T10:17:59.138Z,2.10
2022-11-16T10:21:12.110Z,2.13
2022-11-16T10:24:26.875Z,2.50
2022-11-16T10:27:42.555Z,1.50
2022-11-16T10:30:29.402Z,1.55
2022-11-16T10:33:19.494Z,1.77
2022-11-16T10:36:14.806Z,1.60
2022-11-16T10:39:02.575Z,1.70
2022-11-16T10:41:52.828Z,2.10
2022-11-16T10:44:44.109Z,1.60
2022-11-16T10:47:42.957Z,1.45
2022-11-16T10:50:42.331Z,1.98
2022-11-16T10:53:33.546Z,1.85
2022-11-16T10:56:37.412Z,1.90
2022-11-16T10:59:39.075Z,1.80
2022-11-16T11:02:25.326Z,3.40
2022-11-16T11:05:20.991Z,1.90
2022-11-16T11:08:11.780Z,4.00
2022-11-16T11:11:23.853Z,2.00
2022-11-16T11:14:14.158Z,2.42
2022-11-16T11:17:12.186Z,2.20
2022-11-16T11:20:17.737Z,2.58
2022-11-16T11:23:12.551Z,1.98
2022-11-16T11:26:00.581Z,1.90
2022-11-16T11:28:50.780Z,1.70
2022-11-16T11:31:45.011Z,1.52
2022-11-16T11:37:25.740Z,1.40
2022-11-16T11:40:20.751Z,1.50
2022-11-16T11:43:22.455Z,1.65
2022-11-16T11:46:22.451Z,1.50
2022-11-16T11:49:22.929Z,1.50
2022-11-16T11:52:26.151Z,2.00
2022-11-16T11:55:18.204Z,2.92
2022-11-16T11:58:06.123Z,1.75
2022-11-16T12:01:25.334Z,1.58
2022-11-16T12:04:35.834Z,2.20
2022-11-16T12:07:49.726Z,1.90
2022-11-16T12:11:04.642Z,1.90
2022-11-16T12:14:11.039Z,2.78
2022-11-16T12:17:05.335Z,2.15
2022-11-16T12:20:06.159Z,1.80
2022-11-16T12:23:11.130Z,1.77
2022-11-16T12:26:19.899Z,2.15
2022-11-16T12:29:13.224Z,1.77
2022-11-16T12:32:14.264Z,1.80
2022-11-16T12:35:34.172Z,1.98
2022-11-16T12:38:33.744Z,2.00
2022-11-16T12:41:43.710Z,2.40
2022-11-16T12:44:48.958Z,1.65
2022-11-16T12:47:45.784Z,2.63
2022-11-16T12:51:12.541Z,2.20
2022-11-16T12:54:34.880Z,2.08
2022-11-16T12:57:37.150Z,3.00
2022-11-16T13:00:23.854Z,2.15
2022-11-16T13:03:16.626Z,2.10
2022-11-16T13:06:08.670Z,4.38
2022-11-16T13:09:13.200Z,2.05
2022-11-16T13:12:03.916Z,2.17
2022-11-16T13:14:55.777Z,2.10
2022-11-16T13:17:52.227Z,2.40
2022-11-16T13:21:03.071Z,2.53
2022-11-16T13:24:14.127Z,1.70
2022-11-16T13:27:18.825Z,1.90
2022-11-16T13:30:18.305Z,2.78
2022-11-16T13:33:28.859Z,2.47
2022-11-16T13:36:44.941Z,2.22
2022-11-16T13:39:50.714Z,1.83
2022-11-16T13:43:01.022Z,2.92
2022-11-16T13:45:53.215Z,2.15
2022-11-16T13:48:53.612Z,1.20
2022-11-16T13:51:39.879Z,2.20
2022-11-16T13:54:45.026Z,2.10
2022-11-16T13:57:35.722Z,2.13
2022-11-16T14:00:35.582Z,1.48
2022-11-16T14:03:21.824Z,1.60
2022-11-16T14:06:30.478Z,1.73
2022-11-16T14:09:42.661Z,1.90
2022-11-16T14:12:40.793Z,2.10
2022-11-16T14:15:34.701Z,1.92
2022-11-16T14:18:20.815Z,2.08
2022-11-16T14:21:15.100Z,1.63
2022-11-16T14:24:20.006Z,2.00
2022-11-16T14:27:41.200Z,2.38
2022-11-16T14:31:07.124Z,2.35
2022-11-16T14:34:00.095Z,2.17
2022-11-16T14:36:48.505Z,3.58
2022-11-16T14:39:37.112Z,2.72
2022-11-16T14:42:38.042Z,3.50
2022-11-16T14:45:38.034Z,2.30
2022-11-16T14:48:26.127Z,2.58
2022-11-16T14:51:29.199Z,2.47
2022-11-16T14:54:39.384Z,2.38
2022-11-16T14:57:27.935Z,2.65
2022-11-16T15:00:30.206Z,2.72
2022-11-16T15:03:16.249Z,2.38
2022-11-16T15:06:04.378Z,4.10
2022-11-16T15:08:59.228Z,3.38
2022-11-16T15:12:08.344Z,3.13
2022-11-16T15:14:56.826Z,3.22
2022-11-16T15:17:46.017Z,2.83
2022-11-16T15:20:35.029Z,2.65
2022-11-16T15:23:23.792Z,2.63
2022-11-16T15:26:12.395Z,2.88
2022-11-16T15:28:59.774Z,4.20
2022-11-16T15:31:54.274Z,4.82
2022-11-16T15:34:40.584Z,2.53
2022-11-16T15:37:30.881Z,2.80
2022-11-16T15:40:17.464Z,3.15
2022-11-16T15:43:06.738Z,2.25
2022-11-16T15:45:53.773Z,3.00
2022-11-16T15:48:40.986Z,2.92
2022-11-16T15:51:33.544Z,3.55
2022-11-16T15:54:27.186Z,3.17
2022-11-16T15:57:14.109Z,3.53
2022-11-16T16:00:00.273Z,5.03
2022-11-16T16:02:46.300Z,3.00
2022-11-16T16:05:38.485Z,3.20
2022-11-16T16:08:35.443Z,3.40
2022-11-16T16:11:26.622Z,3.72
2022-11-16T16:14:26.877Z,3.55
2022-11-16T16:17:31.214Z,3.17
2022-11-16T16:20:27.962Z,5.22
2022-11-16T16:23:18.052Z,4.13
2022-11-16T16:26:04.270Z,5.75
2022-11-16T16:28:56.121Z,5.32
2022-11-16T16:31:49.713Z,4.60
2022-11-16T16:37:30.955Z,6.50
2022-11-16T16:40:20.537Z,4.25
2022-11-16T16:43:06.632Z,4.07
2022-11-16T16:45:52.641Z,5.90
2022-11-16T16:48:44.397Z,6.57
2022-11-16T16:51:31.268Z,5.57
2022-11-16T16:54:17.607Z,5.00
2022-11-16T16:57:03.754Z,5.20
2022-11-16T16:59:52.557Z,5.72
2022-11-16T17:02:38.937Z,4.57
2022-11-16T17:05:26.403Z,4.65
2022-11-16T17:08:12.491Z,5.35
2022-11-16T17:10:58.347Z,5.20
2022-11-16T17:13:44.565Z,4.95
2022-11-16T17:16:35.904Z,5.57
2022-11-16T17:19:22.223Z,4.97
2022-11-16T17:22:08.528Z,7.15
2022-11-16T17:24:54.794Z,4.53
2022-11-16T17:27:40.738Z,5.82
2022-11-16T17:30:26.726Z,5.75
2022-11-16T17:33:12.646Z,5.85
2022-11-16T17:36:01.525Z,5.30
2022-11-16T17:38:47.686Z,3.97
2022-11-16T17:41:33.443Z,5.35
2022-11-16T17:44:21.812Z,4.60
2022-11-16T17:47:09.115Z,5.35
2022-11-16T17:49:55.239Z,4.55
2022-11-16T17:52:41.131Z,4.97
2022-11-16T17:55:29.811Z,5.63
2022-11-16T17:58:16.681Z,5.47
2022-11-16T18:01:03.428Z,4.97
2022-11-16T18:03:50.112Z,4.03
2022-11-16T18:06:39.959Z,5.07
2022-11-16T18:09:29.117Z,4.55
2022-11-16T18:12:15.284Z,4.63
2022-11-16T18:15:26.916Z,3.83
2022-11-16T18:18:07.917Z,3.20
2022-11-16T18:20:54.388Z,4.10
2022-11-16T18:23:40.895Z,2.88
2022-11-16T18:26:27.297Z,3.22
2022-11-16T18:29:15.809Z,3.10
2022-11-16T18:32:02.867Z,3.42
2022-11-16T18:34:49.542Z,3.50
2022-11-16T18:37:36.341Z,3.85
2022-11-16T18:40:26.779Z,2.92
2022-11-16T18:43:13.512Z,2.15
2022-11-16T18:46:03.432Z,3.25
2022-11-16T18:48:50.191Z,2.55
2022-11-16T18:51:36.403Z,2.42
2022-11-16T18:54:22.920Z,2.45
2022-11-16T18:57:09.214Z,2.47
2022-11-16T18:59:55.270Z,2.55
2022-11-16T19:02:43.609Z,2.25
2022-11-16T19:05:29.554Z,1.88
2022-11-16T19:08:15.751Z,2.50
2022-11-16T19:11:20.217Z,4.18
2022-11-16T19:14:10.093Z,2.15
2022-11-16T19:16:57.503Z,2.30
2022-11-16T19:19:47.005Z,2.03
2022-11-16T19:22:33.638Z,2.70
2022-11-16T19:25:19.681Z,3.17
2022-11-16T19:28:06.015Z,3.33
2022-11-16T19:30:52.560Z,2.38
2022-11-16T19:33:39.664Z,2.72
2022-11-16T19:36:26.834Z,2.38
2022-11-16T19:39:14.386Z,3.65
2022-11-16T19:42:00.827Z,3.05
2022-11-16T19:44:47.466Z,2.60
2022-11-16T19:47:34.032Z,2.90
2022-11-16T19:50:20.027Z,2.80
2022-11-16T19:53:09.412Z,2.75
2022-11-16T19:55:55.769Z,2.53
2022-11-16T19:58:42.833Z,2.10
2022-11-16T20:01:29.916Z,2.70
2022-11-16T20:04:16.430Z,2.00
2022-11-16T20:07:04.134Z,2.85
2022-11-16T20:09:53.566Z,2.65
2022-11-16T20:12:40.374Z,2.80
2022-11-16T20:15:27.446Z,2.67
2022-11-16T20:18:16.178Z,2.65
2022-11-16T20:21:05.617Z,2.25
2022-11-16T20:23:59.096Z,2.38
2022-11-16T20:26:49.089Z,2.80
2022-11-16T20:29:36.135Z,2.10
2022-11-16T20:32:23.987Z,3.55
2022-11-16T20:35:17.821Z,2.05
2022-11-16T20:38:05.723Z,2.85
2022-11-16T20:40:52.820Z,2.20
2022-11-16T20:43:40.924Z,1.98
2022-11-16T20:46:30.938Z,2.40
2022-11-16T20:49:17.452Z,2.25
2022-11-16T20:52:06.027Z,2.30
2022-11-16T20:54:51.921Z,2.00
2022-11-16T20:57:39.218Z,1.45
2022-11-16T21:00:26.491Z,2.03
2022-11-16T21:03:13.045Z,1.20
2022-11-16T21:05:59.148Z,1.40
2022-11-16T21:08:45.326Z,1.60
2022-11-16T21:11:52.861Z,1.27
2022-11-16T21:14:39.873Z,1.48
2022-11-16T21:17:30.287Z,2.08
2022-11-16T21:20:32.774Z,1.95
2022-11-16T21:23:22.631Z,1.60
2022-11-16T21:26:14.416Z,1.65
2022-11-16T21:29:03.795Z,2.00
2022-11-16T21:31:51.834Z,2.15
2022-11-16T21:34:40.282Z,2.05
2022-11-16T21:37:31.340Z,2.35
2022-11-16T21:40:17.600Z,3.58
2022-11-16T21:43:03.761Z,2.40
2022-11-16T21:45:51.132Z,2.58
2022-11-16T21:48:37.964Z,3.17
2022-11-16T21:51:26.836Z,3.90
2022-11-16T21:54:13.747Z,3.60
2022-11-16T21:56:59.847Z,2.38
2022-11-16T21:59:45.600Z,2.15
2022-11-16T22:02:31.642Z,3.42
2022-11-16T22:05:36.404Z,3.60
2022-11-16T22:11:10.189Z,3.08
2022-11-16T22:13:56.588Z,3.08
2022-11-16T22:16:42.863Z,3.03
2022-11-16T22:19:28.879Z,5.03
2022-11-16T22:22:17.486Z,3.97
2022-11-16T22:25:04.970Z,4.55
2022-11-16T22:28:20.358Z,4.63
2022-11-16T22:31:05.444Z,4.55
2022-11-16T22:33:53.718Z,5.07
2022-11-16T22:36:40.255Z,5.90
2022-11-16T22:39:26.783Z,7.20
2022-11-16T22:42:13.071Z,6.07
2022-11-16T22:45:01.420Z,6.40
2022-11-16T22:47:49.683Z,6.82
2022-11-16T22:50:39.769Z,6.63
2022-11-16T22:53:25.592Z,6.80
2022-11-16T22:56:11.976Z,6.72
2022-11-16T22:59:12.275Z,6.78
2022-11-16T23:01:58.295Z,7.45
2022-11-16T23:04:45.633Z,7.47
2022-11-16T23:07:32.018Z,6.82
2022-11-16T23:10:20.196Z,6.60
2022-11-16T23:13:28.715Z,6.00
2022-11-16T23:16:14.743Z,5.95
2022-11-16T23:19:00.946Z,7.03
2022-11-16T23:22:05.594Z,8.25
2022-11-16T23:25:16.819Z,7.13
2022-11-16T23:28:14.120Z,7.05
2022-11-16T23:31:00.200Z,6.95
2022-11-16T23:33:50.130Z,7.63
2022-11-16T23:36:40.965Z,7.07
2022-11-16T23:39:27.715Z,9.20
2022-11-16T23:42:34.853Z,6.60
2022-11-16T23:45:21.285Z,7.95
2022-11-16T23:48:09.088Z,7.50
2022-11-16T23:50:54.888Z,4.75
2022-11-16T23:53:40.873Z,5.95
2022-11-16T23:56:28.230Z,6.10
2022-11-16T23:59:14.703Z,6.18
